Time;durP1;ratioP1;P1;durP2;ratioP2;P2;SDS_P1;SDS_P2;PMS_P1;PMS_P2;Temp;Humidity;BMP_temperature;BMP_pressure;BME280_temperature;BME280_humidity;BME280_pressure;Samples;Min_cycle;Max_cycle;Signal;HPM_P1;HPM_P2
2022/02/11 00:08:21;;;;;;;6.50;4.30;;;9.40;99.90;;;;;;5025630;28;20411;-73
2022/02/11 00:10:47;;;;;;;4.20;3.80;;;9.50;99.90;;;;;;5024494;28;20417;-71
2022/02/11 00:13:13;;;;;;;4.53;3.73;;;9.50;99.90;;;;;;5010598;28;20200;-69
2022/02/11 00:15:42;;;;;;;4.73;4.33;;;9.30;99.90;;;;;;5025421;28;20177;-70
2022/02/11 00:18:11;;;;;;;5.03;4.47;;;9.30;99.90;;;;;;5025309;28;20507;-70
2022/02/11 00:20:38;;;;;;;5.50;4.07;;;9.30;99.90;;;;;;5025065;28;20487;-72
2022/02/11 00:23:06;;;;;;;4.97;4.30;;;9.20;99.90;;;;;;5024920;28;20764;-69
2022/02/11 00:25:38;;;;;;;5.27;4.23;;;9.20;99.90;;;;;;5024924;28;20448;-70
2022/02/11 00:35:55;;;;;;;4.93;4.37;;;9.50;99.90;;;;;;5024813;28;20418;-70
2022/02/11 00:38:35;;;;;;;5.67;5.17;;;9.50;99.90;;;;;;5024727;28;20686;-69
2022/02/11 01:02:13;;;;;;;8.83;6.60;;;8.60;99.90;;;;;;5024350;28;20482;-71
2022/02/11 01:04:39;;;;;;;7.23;6.20;;;8.50;99.90;;;;;;5024588;28;20397;-73
2022/02/11 01:07:06;;;;;;;9.10;6.83;;;8.40;99.90;;;;;;5024246;28;20783;-73
2022/02/11 01:09:33;;;;;;;8.50;6.73;;;8.30;99.90;;;;;;5024420;28;20196;-71
2022/02/11 01:12:02;;;;;;;9.07;6.97;;;8.20;99.90;;;;;;5023879;28;20430;-69
2022/02/11 01:14:37;;;;;;;9.13;7.20;;;8.10;99.90;;;;;;5024139;28;20853;-71
2022/02/11 01:17:13;;;;;;;8.23;6.50;;;8.10;99.90;;;;;;5024391;28;20398;-71
2022/02/11 01:19:52;;;;;;;7.30;6.60;;;8.10;99.90;;;;;;5023719;28;20445;-74
2022/02/11 01:22:50;;;;;;;7.70;7.00;;;8.00;99.90;;;;;;5023314;28;20422;-70
2022/02/11 01:28:09;;;;;;;9.90;6.50;;;7.90;99.90;;;;;;5023752;28;20435;-73
2022/02/11 01:30:59;;;;;;;7.30;6.60;;;7.90;99.90;;;;;;5024071;28;20958;-72
2022/02/11 01:33:47;;;;;;;6.53;5.50;;;7.80;99.90;;;;;;5023811;28;20405;-70
2022/02/11 01:52:13;;;;;;;8.33;6.70;;;8.10;99.90;;;;;;5023313;28;20851;-71
2022/02/11 02:11:21;;;;;;;5.80;5.20;;;8.40;99.90;;;;;;5042936;28;20386;-71
2022/02/11 02:14:19;;;;;;;5.63;4.60;;;8.40;99.90;;;;;;5042375;28;20783;-71
2022/02/11 02:24:57;;;;;;;8.83;5.10;;;8.10;99.90;;;;;;5042644;28;20480;-70
2022/02/11 02:50:09;;;;;;;4.90;3.70;;;7.80;99.90;;;;;;5046561;28;20432;-70
2022/02/11 02:57:44;;;;;;;4.90;4.30;;;7.80;99.90;;;;;;5046324;28;20506;-71
2022/02/11 03:35:38;;;;;;;3.80;3.30;;;6.80;99.90;;;;;;5045872;28;20883;-70
2022/02/11 03:49:11;;;;;;;3.00;2.70;;;6.40;99.90;;;;;;5045695;28;20974;-72
2022/02/11 03:52:33;;;;;;;3.10;2.77;;;6.30;99.90;;;;;;5045050;28;20481;-72
2022/02/11 03:57:34;;;;;;;2.17;1.97;;;5.70;99.90;;;;;;5045089;28;20400;-70
2022/02/11 04:20:01;;;;;;;1.40;1.30;;;5.00;99.90;;;;;;5049261;28;20396;-70
2022/02/11 05:00:00;;;;;;;3.57;3.27;;;4.60;99.90;;;;;;5043760;28;20455;-70
2022/02/11 05:02:26;;;;;;;3.80;3.50;;;4.70;99.90;;;;;;5042534;28;20433;-69
2022/02/11 05:04:56;;;;;;;3.63;3.33;;;4.60;99.90;;;;;;5044171;28;20190;-71
2022/02/11 05:07:21;;;;;;;4.10;3.70;;;4.50;99.90;;;;;;5043482;28;20405;-71
2022/02/11 05:09:47;;;;;;;4.53;4.23;;;4.50;99.90;;;;;;5043613;28;21296;-70
2022/02/11 05:12:12;;;;;;;4.80;4.47;;;4.50;99.90;;;;;;5025817;28;20205;-71
2022/02/11 05:14:38;;;;;;;5.10;4.70;;;4.60;99.90;;;;;;5043526;28;20540;-72
2022/02/11 05:17:04;;;;;;;4.50;4.20;;;4.70;99.90;;;;;;5043632;28;20189;-70
2022/02/11 05:19:29;;;;;;;4.70;4.30;;;4.60;99.90;;;;;;5043395;28;20627;-70
2022/02/11 05:21:55;;;;;;;5.67;5.17;;;4.50;99.90;;;;;;5025107;28;20182;-70
2022/02/11 05:24:21;;;;;;;4.83;4.40;;;4.50;99.90;;;;;;5043857;28;20500;-70
2022/02/11 05:26:46;;;;;;;4.33;4.03;;;4.50;99.90;;;;;;5043573;28;20175;-71
2022/02/11 05:29:12;;;;;;;5.30;4.90;;;4.60;99.90;;;;;;5043525;28;20178;-72
2022/02/11 05:31:38;;;;;;;4.90;4.40;;;4.60;99.90;;;;;;5043276;28;20592;-73
2022/02/11 05:34:04;;;;;;;4.07;3.77;;;4.70;99.90;;;;;;5043393;28;20264;-70
2022/02/11 05:36:29;;;;;;;4.30;3.90;;;4.60;99.90;;;;;;5042245;28;20262;-70
2022/02/11 05:38:55;;;;;;;4.13;3.50;;;4.50;99.90;;;;;;5043364;28;20941;-69
2022/02/11 05:41:21;;;;;;;4.37;4.03;;;4.50;99.90;;;;;;5043100;28;20246;-70
2022/02/11 05:43:47;;;;;;;4.10;3.80;;;4.60;99.90;;;;;;5043196;28;20272;-70
2022/02/11 05:46:13;;;;;;;3.87;3.57;;;4.60;99.90;;;;;;5042968;28;20830;-70
2022/02/11 05:48:39;;;;;;;4.90;4.50;;;4.50;99.90;;;;;;5043561;28;20446;-70
2022/02/11 05:51:09;;;;;;;4.43;4.07;;;4.50;99.90;;;;;;5042780;28;20681;-71
2022/02/11 05:53:35;;;;;;;4.37;3.97;;;4.60;99.90;;;;;;5042848;28;20451;-71
2022/02/11 05:56:01;;;;;;;4.10;3.70;;;4.60;99.90;;;;;;5043277;28;20409;-70
2022/02/11 05:58:26;;;;;;;4.40;4.00;;;4.60;99.90;;;;;;5043052;28;20932;-75
2022/02/11 06:00:53;;;;;;;4.50;4.10;;;4.70;99.90;;;;;;5042991;28;20604;-76
2022/02/11 06:03:18;;;;;;;3.67;3.37;;;4.70;99.90;;;;;;5043009;28;20196;-74
2022/02/11 06:05:44;;;;;;;6.00;5.40;;;4.80;99.90;;;;;;5043012;28;20413;-72
2022/02/11 06:08:11;;;;;;;4.50;4.10;;;4.80;99.90;;;;;;5045647;28;20175;-70
2022/02/11 06:10:37;;;;;;;4.50;4.10;;;4.70;99.90;;;;;;5046994;28;20708;-72
2022/02/11 06:13:03;;;;;;;3.60;3.30;;;4.90;99.90;;;;;;5046933;28;20445;-75
2022/02/11 06:15:28;;;;;;;5.23;4.73;;;5.00;99.90;;;;;;5047097;28;20494;-71
2022/02/11 06:17:54;;;;;;;6.90;4.67;;;4.90;99.90;;;;;;5047187;28;20257;-75
2022/02/11 06:20:27;;;;;;;4.80;4.40;;;5.00;99.90;;;;;;5047182;28;20240;-70
2022/02/11 06:22:54;;;;;;;4.80;4.00;;;4.90;99.90;;;;;;5046758;28;20282;-71
2022/02/11 06:25:20;;;;;;;4.33;3.93;;;5.00;99.90;;;;;;5045559;28;20800;-75
2022/02/11 06:27:46;;;;;;;5.70;5.20;;;5.00;99.90;;;;;;5046854;28;20417;-70
2022/02/11 06:30:12;;;;;;;6.80;4.37;;;5.00;99.90;;;;;;5046776;28;20428;-70
2022/02/11 06:32:38;;;;;;;5.20;4.80;;;5.20;99.90;;;;;;5046812;28;20647;-74
2022/02/11 06:35:04;;;;;;;5.00;4.30;;;5.10;99.90;;;;;;5046589;28;20416;-70
2022/02/11 06:37:29;;;;;;;5.87;5.37;;;5.10;99.90;;;;;;5045634;28;20175;-74
2022/02/11 06:39:55;;;;;;;6.07;5.00;;;5.20;99.90;;;;;;5046173;28;20463;-70
2022/02/11 06:42:21;;;;;;;5.80;5.10;;;5.10;99.90;;;;;;5046603;28;20221;-70
2022/02/11 06:44:46;;;;;;;4.70;4.30;;;5.10;99.90;;;;;;5046572;28;20218;-70
2022/02/11 06:47:12;;;;;;;5.77;5.20;;;4.90;99.90;;;;;;5046522;28;20657;-73
2022/02/11 06:49:38;;;;;;;5.60;5.03;;;5.00;99.90;;;;;;5046368;28;20182;-73
2022/02/11 06:52:04;;;;;;;5.47;4.33;;;5.10;99.90;;;;;;5045808;28;20179;-71
2022/02/11 06:54:29;;;;;;;5.20;4.70;;;4.80;99.90;;;;;;5046320;28;20312;-71
2022/02/11 06:56:55;;;;;;;5.43;4.93;;;4.90;99.90;;;;;;5046103;28;20853;-71
2022/02/11 06:59:20;;;;;;;5.43;4.90;;;4.90;99.90;;;;;;5046403;28;20206;-71
2022/02/11 07:01:46;;;;;;;5.30;4.80;;;5.00;99.90;;;;;;5045425;28;20163;-71
2022/02/11 07:04:13;;;;;;;5.17;4.50;;;4.90;99.90;;;;;;5032347;28;20610;-69
2022/02/11 07:06:39;;;;;;;6.07;4.03;;;4.90;99.90;;;;;;5046249;28;20417;-70
2022/02/11 07:09:05;;;;;;;5.10;3.63;;;4.80;99.90;;;;;;5046162;28;20834;-71
2022/02/11 07:11:31;;;;;;;5.73;5.13;;;4.90;99.90;;;;;;5028837;28;20274;-74
2022/02/11 07:13:56;;;;;;;4.80;4.00;;;4.90;99.90;;;;;;5045121;28;20898;-75
2022/02/11 07:16:22;;;;;;;7.30;5.80;;;5.00;99.90;;;;;;5046393;28;20545;-71
2022/02/11 07:18:48;;;;;;;6.77;6.07;;;5.00;99.90;;;;;;5045718;28;20226;-70
2022/02/11 07:21:13;;;;;;;10.33;7.40;;;4.80;99.90;;;;;;5046197;28;20178;-71
2022/02/11 07:23:39;;;;;;;8.10;7.30;;;4.90;99.90;;;;;;5047317;28;20220;-72
2022/02/11 07:26:04;;;;;;;9.43;7.97;;;5.00;99.90;;;;;;5047805;28;20683;-72
2022/02/11 07:28:30;;;;;;;12.03;8.20;;;5.10;99.90;;;;;;5042974;28;20187;-74
2022/02/11 07:30:58;;;;;;;7.80;7.00;;;5.10;99.90;;;;;;5046418;28;20189;-72
2022/02/11 07:33:23;;;;;;;5.40;4.67;;;5.10;99.90;;;;;;5047735;28;20194;-72
2022/02/11 07:35:49;;;;;;;4.87;4.47;;;5.00;99.90;;;;;;5046291;28;20944;-70
2022/02/11 07:38:15;;;;;;;5.33;4.83;;;4.90;99.90;;;;;;5045491;28;20187;-72
2022/02/11 07:40:40;;;;;;;5.07;4.43;;;4.80;99.90;;;;;;5045589;28;20194;-74
2022/02/11 07:43:06;;;;;;;4.93;4.53;;;4.70;99.90;;;;;;5046511;28;20276;-70
2022/02/11 07:45:34;;;;;;;7.20;5.03;;;4.50;99.90;;;;;;5045522;28;20632;-73
2022/02/11 07:48:00;;;;;;;5.67;4.57;;;4.50;99.90;;;;;;5045579;28;20779;-71
2022/02/11 07:50:26;;;;;;;5.87;5.27;;;4.70;99.90;;;;;;5045825;28;20470;-70
2022/02/11 07:55:24;;;;;;;4.93;4.47;;;4.90;99.90;;;;;;5044418;28;20465;-74
2022/02/11 07:57:50;;;;;;;6.27;4.47;;;4.90;99.90;;;;;;5045445;28;20405;-73
2022/02/11 08:00:16;;;;;;;6.13;4.47;;;4.80;99.90;;;;;;5044808;28;20197;-72
2022/02/11 08:02:42;;;;;;;4.37;3.97;;;4.70;99.90;;;;;;5045410;28;20515;-72
2022/02/11 08:05:09;;;;;;;5.93;3.73;;;4.70;99.90;;;;;;5045226;28;20949;-71
2022/02/11 08:07:34;;;;;;;5.83;4.47;;;4.80;99.90;;;;;;5045016;28;20253;-73
2022/02/11 08:10:00;;;;;;;8.67;4.30;;;4.80;99.90;;;;;;5044885;28;20889;-72
2022/02/11 08:12:26;;;;;;;5.33;3.83;;;4.80;99.90;;;;;;5044992;28;20228;-72
2022/02/11 08:14:51;;;;;;;4.87;4.37;;;5.00;99.90;;;;;;5026844;28;20198;-72
2022/02/11 08:17:18;;;;;;;6.27;3.87;;;4.90;99.90;;;;;;5044969;28;20628;-71
2022/02/11 08:19:43;;;;;;;4.47;4.07;;;4.80;99.90;;;;;;5026956;28;20206;-72
2022/02/11 08:22:09;;;;;;;6.53;4.50;;;4.90;99.90;;;;;;5045138;28;20421;-73
2022/02/11 08:24:34;;;;;;;7.20;3.87;;;5.00;99.90;;;;;;5026940;28;20211;-72
2022/02/11 08:27:00;;;;;;;5.90;4.30;;;4.90;99.90;;;;;;5044575;28;20181;-72
2022/02/11 08:29:26;;;;;;;4.23;3.70;;;4.80;99.90;;;;;;5027084;28;20201;-71
2022/02/11 08:31:55;;;;;;;5.30;3.87;;;4.80;99.90;;;;;;5044125;28;20179;-72
2022/02/11 08:34:25;;;;;;;5.33;3.50;;;5.00;99.90;;;;;;5026739;28;20203;-73
2022/02/11 08:36:51;;;;;;;4.97;3.50;;;5.30;99.90;;;;;;5044537;28;20466;-74
2022/02/11 08:39:18;;;;;;;7.00;3.97;;;5.20;99.90;;;;;;5044740;28;20453;-75
2022/02/11 08:41:44;;;;;;;7.13;4.13;;;5.30;99.90;;;;;;5026891;28;20583;-74
2022/02/11 08:44:09;;;;;;;6.23;3.63;;;5.30;99.90;;;;;;5044096;28;20461;-73
2022/02/11 08:46:35;;;;;;;7.97;4.43;;;5.20;99.90;;;;;;5044713;28;20914;-72
2022/02/11 08:49:01;;;;;;;4.53;3.60;;;5.00;99.90;;;;;;5044322;28;20178;-70
2022/02/11 08:51:29;;;;;;;8.80;3.70;;;5.10;99.90;;;;;;5044280;28;20178;-71
2022/02/11 08:53:56;;;;;;;6.07;3.77;;;5.20;99.90;;;;;;5044027;28;20293;-71
2022/02/11 08:56:22;;;;;;;5.90;3.60;;;5.00;99.90;;;;;;5043620;28;20783;-72
2022/02/11 08:58:47;;;;;;;6.60;3.60;;;5.10;99.90;;;;;;5044256;28;20444;-71
2022/02/11 09:01:13;;;;;;;5.13;3.77;;;5.20;99.90;;;;;;5044333;28;20224;-70
2022/02/11 09:03:39;;;;;;;5.20;3.80;;;5.20;99.90;;;;;;5044158;28;20222;-71
2022/02/11 09:06:07;;;;;;;4.43;3.20;;;5.10;99.90;;;;;;5044256;28;20181;-70
2022/02/11 09:08:33;;;;;;;3.40;3.10;;;5.00;99.90;;;;;;5043585;28;20439;-71
2022/02/11 09:11:00;;;;;;;4.10;3.70;;;5.00;99.90;;;;;;5043616;28;20503;-71
2022/02/11 09:13:27;;;;;;;4.37;3.33;;;5.10;99.90;;;;;;5043993;28;20955;-72
2022/02/11 09:15:53;;;;;;;6.67;3.67;;;5.10;99.90;;;;;;5043524;28;20494;-70
2022/02/11 09:18:20;;;;;;;6.23;3.60;;;5.20;99.90;;;;;;5043700;28;20431;-72
2022/02/11 09:20:46;;;;;;;5.20;3.70;;;5.10;99.90;;;;;;5043582;28;20409;-72
2022/02/11 09:23:12;;;;;;;8.83;3.70;;;5.20;99.90;;;;;;5043210;28;20411;-71
2022/02/11 09:25:37;;;;;;;3.43;3.13;;;5.20;99.90;;;;;;5043189;28;20495;-71
2022/02/11 09:28:03;;;;;;;4.23;3.27;;;5.30;99.90;;;;;;5043139;28;20181;-72
2022/02/11 09:30:31;;;;;;;5.00;3.63;;;5.30;99.90;;;;;;5043636;28;20588;-72
2022/02/11 09:32:58;;;;;;;5.63;3.40;;;5.40;99.90;;;;;;5043689;28;20297;-73
2022/02/11 09:35:24;;;;;;;7.13;3.60;;;5.40;99.90;;;;;;5043185;28;20428;-72
2022/02/11 09:37:51;;;;;;;6.27;4.00;;;5.50;99.90;;;;;;5043177;28;20409;-73
2022/02/11 09:40:21;;;;;;;7.40;3.80;;;5.50;99.90;;;;;;5042489;28;20191;-72
2022/02/11 09:42:50;;;;;;;6.20;5.17;;;5.60;99.90;;;;;;5042952;28;20406;-73
2022/02/11 09:45:20;;;;;;;4.70;2.97;;;5.60;99.90;;;;;;5042988;28;20444;-72
2022/02/11 09:47:46;;;;;;;5.20;3.37;;;5.60;99.90;;;;;;5043004;28;20420;-72
2022/02/11 09:50:12;;;;;;;4.40;3.10;;;5.70;99.90;;;;;;5043206;28;20958;-72
2022/02/11 09:52:40;;;;;;;3.80;3.40;;;5.80;99.90;;;;;;5042696;28;20448;-71
2022/02/11 09:57:50;;;;;;;3.27;2.97;;;6.30;99.90;;;;;;5043433;28;20811;-72
2022/02/11 10:00:16;;;;;;;3.47;2.80;;;6.10;99.90;;;;;;5025049;28;20453;-74
2022/02/11 10:02:52;;;;;;;4.37;3.30;;;6.10;99.90;;;;;;5043399;28;20183;-71
2022/02/11 10:05:25;;;;;;;4.77;2.73;;;6.20;99.90;;;;;;5043250;28;20455;-71
2022/02/11 10:07:52;;;;;;;5.80;3.60;;;6.30;99.90;;;;;;5042949;28;20408;-71
2022/02/11 10:13:07;;;;;;;5.20;3.50;;;6.20;99.90;;;;;;5043118;28;20419;-72
2022/02/11 10:15:36;;;;;;;3.93;3.13;;;6.20;99.90;;;;;;5042937;28;20649;-73
2022/02/11 10:18:03;;;;;;;4.90;3.23;;;6.30;99.90;;;;;;5025013;28;20442;-71
2022/02/11 10:20:29;;;;;;;5.63;3.20;;;6.30;99.90;;;;;;5042978;28;20449;-71
2022/02/11 10:23:29;;;;;;;4.93;3.33;;;6.50;99.90;;;;;;5024551;28;20506;-71
2022/02/11 10:25:54;;;;;;;4.03;3.20;;;6.60;99.90;;;;;;5042845;28;20406;-72
2022/02/11 10:28:35;;;;;;;6.00;2.87;;;6.70;99.90;;;;;;5042966;28;20424;-71
2022/02/11 10:31:14;;;;;;;3.93;3.00;;;6.80;99.90;;;;;;5042900;28;20192;-71
2022/02/11 10:34:02;;;;;;;3.30;2.73;;;6.70;99.90;;;;;;5042837;28;20468;-73
2022/02/11 10:36:47;;;;;;;6.80;3.07;;;6.60;99.90;;;;;;5043121;28;20976;-72
2022/02/11 10:39:22;;;;;;;4.53;2.77;;;6.60;99.90;;;;;;5025119;28;20464;-71
2022/02/11 10:41:57;;;;;;;5.70;2.67;;;6.80;99.90;;;;;;5042620;28;20427;-71
2022/02/11 10:44:34;;;;;;;6.53;3.77;;;7.10;99.90;;;;;;5042845;28;20439;-72
2022/02/11 10:47:04;;;;;;;4.00;3.10;;;7.20;99.90;;;;;;5025003;28;20417;-72
2022/02/11 10:49:34;;;;;;;4.27;2.80;;;7.10;99.90;;;;;;5024949;28;20446;-73
2022/02/11 10:52:15;;;;;;;7.07;2.97;;;7.10;99.90;;;;;;5042047;28;21016;-73
2022/02/11 10:54:41;;;;;;;6.20;3.40;;;7.00;99.90;;;;;;5043820;28;21007;-70
2022/02/11 10:57:10;;;;;;;4.07;3.00;;;6.80;99.90;;;;;;5045940;28;20961;-72
2022/02/11 10:59:37;;;;;;;6.37;3.17;;;6.90;99.90;;;;;;5046347;28;20459;-71
2022/02/11 11:02:05;;;;;;;3.90;2.93;;;7.00;99.90;;;;;;5046316;28;20404;-72
2022/02/11 11:04:31;;;;;;;4.63;3.00;;;7.10;99.90;;;;;;5046420;28;20438;-71
2022/02/11 11:06:57;;;;;;;6.43;3.43;;;7.10;99.90;;;;;;5046524;28;20409;-72
2022/02/11 11:09:25;;;;;;;3.37;2.40;;;7.20;99.90;;;;;;5046288;28;20174;-72
2022/02/11 11:11:53;;;;;;;5.20;3.40;;;7.30;99.90;;;;;;5045817;28;20466;-72
2022/02/11 11:14:20;;;;;;;4.53;2.73;;;7.30;99.90;;;;;;5027858;28;20508;-72
2022/02/11 11:16:49;;;;;;;4.30;2.90;;;7.40;99.90;;;;;;5046657;28;20452;-72
2022/02/11 11:19:15;;;;;;;6.23;3.27;;;7.90;99.90;;;;;;5045949;28;20454;-72
2022/02/11 11:22:11;;;;;;;6.90;2.60;;;8.50;99.90;;;;;;5045814;28;20781;-72
2022/02/11 11:24:52;;;;;;;7.17;3.73;;;8.80;99.90;;;;;;5045379;28;20925;-72
2022/02/11 11:27:41;;;;;;;9.07;3.47;;;9.20;99.90;;;;;;5045394;28;20410;-72
2022/02/11 11:30:27;;;;;;;3.40;3.10;;;8.70;99.90;;;;;;5045677;28;20427;-72
2022/02/11 11:33:07;;;;;;;4.40;2.80;;;7.90;99.90;;;;;;5045850;28;20437;-72
2022/02/11 11:36:04;;;;;;;3.77;3.10;;;7.70;99.90;;;;;;5045611;28;20422;-72
2022/02/11 11:39:07;;;;;;;5.70;3.83;;;8.30;99.90;;;;;;5045261;28;20410;-72
2022/02/11 11:41:35;;;;;;;4.90;3.10;;;8.10;99.90;;;;;;4964653;28;20435;-72
2022/02/11 11:44:26;;;;;;;3.23;2.70;;;7.80;99.90;;;;;;4964374;28;20438;-72
2022/02/11 11:46:54;;;;;;;8.40;3.20;;;7.60;99.90;;;;;;5016482;28;20421;-72
2022/02/11 11:49:21;;;;;;;3.20;2.90;;;7.60;99.90;;;;;;5045320;28;20868;-72
2022/02/11 11:51:47;;;;;;;8.10;3.80;;;7.60;99.90;;;;;;5045480;28;20763;-72
2022/02/11 11:54:15;;;;;;;6.43;2.97;;;7.60;99.90;;;;;;5044964;28;20465;-72
2022/02/11 11:56:48;;;;;;;6.07;2.70;;;7.70;99.90;;;;;;5044549;28;20221;-72
2022/02/11 11:59:15;;;;;;;3.50;2.50;;;7.60;99.90;;;;;;5044908;28;20446;-72
2022/02/11 12:01:54;;;;;;;5.80;3.10;;;7.30;99.90;;;;;;5045077;28;20415;-72
2022/02/11 12:04:23;;;;;;;4.87;2.80;;;7.30;99.90;;;;;;5045101;28;20463;-71
2022/02/11 12:07:01;;;;;;;6.60;3.20;;;7.40;99.90;;;;;;5026864;28;20908;-71
2022/02/11 12:09:28;;;;;;;2.33;2.00;;;7.60;99.90;;;;;;5045176;28;20413;-71
2022/02/11 12:12:04;;;;;;;3.90;1.87;;;8.20;99.90;;;;;;5027133;28;20442;-72
2022/02/11 12:14:32;;;;;;;5.90;2.50;;;8.30;99.90;;;;;;5044832;28;21100;-72
2022/02/11 12:16:59;;;;;;;6.30;2.70;;;8.40;99.90;;;;;;5044955;28;20464;-72
2022/02/11 12:19:26;;;;;;;4.80;2.50;;;8.50;99.90;;;;;;5045123;28;20473;-73
2022/02/11 12:21:52;;;;;;;6.57;2.60;;;8.60;99.90;;;;;;5045944;28;20491;-72
2022/02/11 12:27:20;;;;;;;3.87;2.13;;;8.20;99.90;;;;;;5045070;28;20538;-70
2022/02/11 12:29:56;;;;;;;3.10;2.20;;;8.30;99.90;;;;;;5044765;28;20411;-72
2022/02/11 12:32:25;;;;;;;4.67;2.33;;;8.40;99.90;;;;;;5044791;28;20506;-72
2022/02/11 12:35:02;;;;;;;4.27;2.37;;;8.20;99.90;;;;;;5026565;28;20452;-70
2022/02/11 12:37:29;;;;;;;3.40;2.10;;;7.90;99.90;;;;;;5044232;28;20433;-71
2022/02/11 12:40:13;;;;;;;4.30;2.10;;;7.70;99.90;;;;;;5043526;28;20451;-72
2022/02/11 12:42:44;;;;;;;7.17;2.53;;;7.70;99.90;;;;;;5044196;28;20443;-72
2022/02/11 12:45:12;;;;;;;7.87;2.30;;;7.60;99.90;;;;;;5044221;28;21041;-74
2022/02/11 12:47:39;;;;;;;3.50;1.97;;;7.70;99.90;;;;;;5043471;28;20422;-72
2022/02/11 12:50:07;;;;;;;2.13;1.90;;;7.70;99.90;;;;;;5026039;28;20440;-73
2022/02/11 12:52:36;;;;;;;3.03;2.10;;;7.80;99.90;;;;;;5025932;28;20426;-73
2022/02/11 12:55:12;;;;;;;4.53;2.50;;;8.00;99.90;;;;;;5025845;28;20990;-73
2022/02/11 12:57:41;;;;;;;7.30;2.67;;;7.80;99.90;;;;;;5044332;28;20440;-74
2022/02/11 13:00:13;;;;;;;4.90;2.50;;;7.60;99.90;;;;;;5044147;28;20486;-73
2022/02/11 13:02:41;;;;;;;4.00;2.30;;;7.50;99.90;;;;;;5044360;28;20416;-73
2022/02/11 13:05:10;;;;;;;3.80;2.43;;;7.50;99.90;;;;;;5043849;28;20952;-74
2022/02/11 13:07:39;;;;;;;4.50;2.60;;;7.40;99.90;;;;;;5043531;28;20438;-75
2022/02/11 13:10:07;;;;;;;2.87;2.00;;;7.80;99.90;;;;;;5043875;28;20412;-74
2022/02/11 13:12:38;;;;;;;3.80;2.50;;;7.70;99.90;;;;;;5043669;28;20974;-74
2022/02/11 13:15:06;;;;;;;4.40;2.50;;;7.70;99.90;;;;;;5026451;28;20442;-74
2022/02/11 13:17:31;;;;;;;2.57;2.37;;;7.60;99.90;;;;;;5043262;28;20667;-73
2022/02/11 13:20:07;;;;;;;10.70;3.43;;;7.70;99.90;;;;;;5043904;28;20858;-74
2022/02/11 13:22:33;;;;;;;4.57;2.27;;;7.90;99.90;;;;;;5043197;28;20216;-73
2022/02/11 13:24:59;;;;;;;5.77;3.23;;;7.70;99.90;;;;;;5025566;28;20897;-76
2022/02/11 13:27:53;;;;;;;5.37;2.67;;;7.70;99.90;;;;;;5044226;28;20452;-76
2022/02/11 13:30:28;;;;;;;7.57;2.43;;;7.60;99.90;;;;;;5044545;28;20182;-76
2022/02/11 13:32:55;;;;;;;5.20;2.70;;;8.10;99.90;;;;;;5025816;28;20424;-74
2022/02/11 13:35:22;;;;;;;3.80;2.90;;;8.60;99.90;;;;;;5043269;28;20752;-73
2022/02/11 13:37:51;;;;;;;5.07;2.40;;;10.00;99.90;;;;;;5043381;28;20599;-73
2022/02/11 13:40:22;;;;;;;4.10;2.43;;;12.20;97.30;;;;;;5043572;28;20606;-74
2022/02/11 13:42:59;;;;;;;5.30;2.67;;;13.10;95.00;;;;;;5043574;28;20406;-74
2022/02/11 13:45:26;;;;;;;3.80;2.30;;;13.70;93.40;;;;;;5043675;28;20448;-74
2022/02/11 13:48:07;;;;;;;4.23;2.67;;;13.00;93.20;;;;;;5043550;28;20412;-74
2022/02/11 13:50:55;;;;;;;6.30;2.50;;;12.40;93.80;;;;;;5043584;28;20446;-75
2022/02/11 13:55:52;;;;;;;3.90;2.10;;;13.20;92.20;;;;;;5086453;22;20488;-69
2022/02/11 13:58:18;;;;;;;3.83;2.77;;;12.80;92.50;;;;;;5065564;28;20414;-72
2022/02/11 14:00:44;;;;;;;4.47;2.20;;;12.30;92.80;;;;;;5065101;28;20456;-72
2022/02/11 14:03:26;;;;;;;3.57;2.13;;;12.60;92.90;;;;;;5064777;28;20546;-70
2022/02/11 14:06:00;;;;;;;3.33;2.17;;;12.10;93.10;;;;;;5043692;28;20177;-74
2022/02/11 14:08:40;;;;;;;3.60;2.40;;;11.20;94.00;;;;;;5025326;28;20417;-72
2022/02/11 14:11:39;;;;;;;5.10;2.10;;;10.30;94.80;;;;;;5026014;28;20759;-71
2022/02/11 14:14:23;;;;;;;4.13;2.20;;;9.50;96.30;;;;;;5043915;28;20750;-71
2022/02/11 14:16:49;;;;;;;4.57;2.00;;;8.90;97.20;;;;;;5044210;28;20782;-72
2022/02/11 14:19:17;;;;;;;3.20;2.20;;;8.40;97.90;;;;;;5043932;28;20915;-71
2022/02/11 14:21:42;;;;;;;4.00;2.60;;;8.10;98.20;;;;;;5043756;28;20854;-72
2022/02/11 14:24:09;;;;;;;3.93;2.40;;;8.10;99.30;;;;;;5025863;28;20442;-73
2022/02/11 14:26:36;;;;;;;3.20;2.00;;;8.00;99.80;;;;;;5026429;28;20182;-73
2022/02/11 14:29:02;;;;;;;2.80;2.20;;;8.10;99.90;;;;;;5026689;28;20780;-72
2022/02/11 14:31:27;;;;;;;3.73;2.50;;;8.20;99.90;;;;;;5047815;28;20410;-74
2022/02/11 14:33:53;;;;;;;5.23;2.67;;;8.20;99.90;;;;;;5047877;28;20491;-72
2022/02/11 14:36:18;;;;;;;4.50;2.80;;;8.40;99.80;;;;;;5046936;28;20184;-69
2022/02/11 14:38:44;;;;;;;5.47;1.97;;;8.30;99.40;;;;;;5046853;28;20186;-71
2022/02/11 14:43:54;;;;;;;4.00;2.00;;;8.50;98.70;;;;;;5046326;28;20203;-72
2022/02/11 14:46:21;;;;;;;3.53;1.70;;;8.40;98.70;;;;;;5047880;28;20405;-72
2022/02/11 14:48:47;;;;;;;4.13;2.30;;;8.20;98.70;;;;;;5049155;28;20423;-73
2022/02/11 14:51:12;;;;;;;5.13;2.83;;;8.00;99.00;;;;;;5047556;28;20904;-72
2022/02/11 14:53:38;;;;;;;3.00;2.40;;;8.20;99.30;;;;;;5046926;28;20178;-70
2022/02/11 14:56:07;;;;;;;3.80;2.30;;;8.20;99.70;;;;;;5048366;28;20172;-74
2022/02/11 14:58:35;;;;;;;7.10;3.00;;;8.20;99.40;;;;;;5049497;28;20291;-71
2022/02/11 15:01:01;;;;;;;3.70;2.73;;;8.00;99.50;;;;;;5049810;28;20447;-71
2022/02/11 15:03:27;;;;;;;3.77;2.57;;;8.10;99.80;;;;;;5048303;28;20467;-70
2022/02/11 15:05:52;;;;;;;4.07;2.80;;;8.30;99.80;;;;;;5048706;28;20666;-71
2022/02/11 15:08:18;;;;;;;3.30;2.80;;;8.30;99.80;;;;;;5047375;28;20435;-73
2022/02/11 15:10:44;;;;;;;3.60;2.67;;;8.20;99.90;;;;;;5046911;28;20679;-70
2022/02/11 15:13:09;;;;;;;4.00;2.73;;;8.30;99.90;;;;;;5046309;28;20222;-70
2022/02/11 15:15:37;;;;;;;4.97;3.40;;;8.20;99.90;;;;;;5046318;28;20207;-73
2022/02/11 15:18:05;;;;;;;5.17;3.30;;;8.20;99.90;;;;;;5028278;28;20588;-71
2022/02/11 15:20:31;;;;;;;3.60;2.80;;;8.00;99.90;;;;;;5046304;28;20582;-71
2022/02/11 15:22:57;;;;;;;3.90;3.00;;;7.90;99.90;;;;;;5046317;28;20443;-72
2022/02/11 15:25:22;;;;;;;3.83;3.10;;;7.90;99.90;;;;;;5046494;28;20426;-75
2022/02/11 15:27:48;;;;;;;4.13;2.97;;;7.70;99.90;;;;;;5028345;28;20179;-74
2022/02/11 15:30:14;;;;;;;6.00;2.53;;;7.50;99.90;;;;;;5047106;28;20579;-74
2022/02/11 15:32:41;;;;;;;2.80;2.30;;;7.60;99.90;;;;;;5046856;28;20260;-76
2022/02/11 15:35:06;;;;;;;3.60;2.80;;;7.80;99.90;;;;;;5046772;28;20449;-75
2022/02/11 15:37:32;;;;;;;3.73;2.23;;;7.90;99.90;;;;;;5046675;28;20502;-74
2022/02/11 15:39:58;;;;;;;4.80;2.73;;;8.10;99.90;;;;;;5045228;28;20205;-70
2022/02/11 15:42:24;;;;;;;3.70;2.50;;;8.00;99.90;;;;;;5045700;28;20173;-71
2022/02/11 15:44:50;;;;;;;3.90;2.70;;;8.10;99.90;;;;;;5046508;28;20466;-72
2022/02/11 15:47:15;;;;;;;5.10;3.20;;;8.00;99.90;;;;;;5047484;28;21243;-72
2022/02/11 15:49:41;;;;;;;3.67;2.50;;;7.90;99.90;;;;;;5048985;28;20177;-72
2022/02/11 15:52:07;;;;;;;4.20;3.10;;;7.70;99.90;;;;;;5048178;28;20189;-72
2022/02/11 15:54:33;;;;;;;5.43;2.87;;;7.60;99.90;;;;;;5028858;28;20261;-71
2022/02/11 15:56:59;;;;;;;3.70;2.40;;;7.40;99.90;;;;;;5046006;28;20427;-73
2022/02/11 15:59:24;;;;;;;6.73;2.73;;;7.50;99.90;;;;;;5030855;28;20477;-71
2022/02/11 16:01:51;;;;;;;4.67;2.83;;;7.30;99.90;;;;;;5049402;28;20179;-73
2022/02/11 16:04:17;;;;;;;7.83;3.60;;;7.40;99.90;;;;;;5049651;28;20288;-71
2022/02/11 16:06:43;;;;;;;4.50;2.53;;;7.40;99.90;;;;;;5031369;28;20427;-71
2022/02/11 16:09:09;;;;;;;6.47;3.63;;;7.50;99.90;;;;;;5050441;28;20410;-72
2022/02/11 16:11:35;;;;;;;5.70;3.97;;;7.50;99.90;;;;;;5052112;28;20413;-69
2022/02/11 16:14:01;;;;;;;5.67;2.70;;;7.30;99.90;;;;;;5046648;28;20199;-71
2022/02/11 16:16:26;;;;;;;3.77;2.83;;;7.20;99.90;;;;;;5049783;28;20425;-72
2022/02/11 16:18:52;;;;;;;6.80;4.03;;;7.30;99.90;;;;;;5049947;28;20245;-72
2022/02/11 16:21:18;;;;;;;5.50;2.80;;;7.30;99.90;;;;;;5045348;28;20176;-70
2022/02/11 16:23:43;;;;;;;7.80;3.50;;;7.40;99.90;;;;;;5045113;28;20176;-69
2022/02/11 16:26:10;;;;;;;5.07;2.70;;;7.30;99.90;;;;;;5044704;28;20188;-68
2022/02/11 16:28:37;;;;;;;4.80;2.50;;;7.20;99.90;;;;;;5045076;28;20187;-69
2022/02/11 16:31:27;;;;;;;3.83;2.97;;;7.20;99.90;;;;;;5045218;28;20770;-69
2022/02/11 16:33:54;;;;;;;4.80;3.20;;;7.10;99.90;;;;;;5045884;28;20422;-72
2022/02/11 16:36:21;;;;;;;8.83;3.23;;;7.20;99.90;;;;;;5047046;28;20412;-73
2022/02/11 16:38:48;;;;;;;6.40;3.13;;;7.40;99.90;;;;;;5028543;28;20743;-72
2022/02/11 16:41:13;;;;;;;7.03;3.17;;;7.50;99.90;;;;;;5047563;28;20950;-72
2022/02/11 16:43:40;;;;;;;7.93;3.70;;;7.40;99.90;;;;;;5046565;28;20416;-70
2022/02/11 16:46:06;;;;;;;6.77;3.47;;;7.30;99.90;;;;;;5046738;28;20414;-72
2022/02/11 16:48:32;;;;;;;7.93;3.93;;;6.90;99.90;;;;;;5045801;28;20438;-73
2022/02/11 16:50:59;;;;;;;6.40;4.27;;;6.40;99.90;;;;;;5026921;28;20895;-71
2022/02/11 16:53:25;;;;;;;7.53;4.63;;;6.00;99.90;;;;;;5047979;28;20435;-72
2022/02/11 16:55:51;;;;;;;6.70;4.90;;;5.70;99.90;;;;;;5050155;28;20491;-70